Praetorius — 5BRS2 — position and weather

sailwx.info

Track history (hours):
 
Tides and Currents Weather Stations Pressure Air Temp Water Temp Dewpoint Dewpoint Depression Visibility Wind Speed Wind Dir Waves Ship Positions

Praetorius

Last reported at 2017-Nov-18 17:06 UTC. Time now 2017-Nov-21 12:17 UTC.
Position N 40°39' W 008°43'.

Length 169 m; draft 9.9 m.

Type: Ship. MMSI: 212942000.

Date/timePositionNaut miles runAvg speedWind from/ knotsBaromVisibWave heightAir tempDewpointWater temp
2017-Nov-18 17:06N 40°39' W 008°43'0 0.0
2017-Nov-18 16:57N 40°39' W 008°43'0 0.0
2017-Nov-18 16:30N 40°39' W 008°43'73 1.9
2017-Nov-17 03:10N 39°41' W 009°39'11 9.8
2017-Nov-17 02:06N 39°30' W 009°42'510.6
2017-Nov-17 01:40N 39°26' W 009°43'210.5
2017-Nov-17 01:31N 39°24' W 009°43'510.9
2017-Nov-17 01:00N 39°19' W 009°44'510.8
2017-Nov-17 00:30N 39°13' W 009°45'510.6
2017-Nov-17 00:01N 39°08' W 009°46'510.5
2017-Nov-16 23:30N 39°03' W 009°47'510.5
2017-Nov-16 23:00N 38°58' W 009°48'510.4
2017-Nov-16 22:31N 38°53' W 009°50'510.5
2017-Nov-16 22:01N 38°48' W 009°51'510.2
2017-Nov-16 21:31N 38°42' W 009°51'5 9.8
2017-Nov-16 21:00N 38°38' W 009°50'5 9.5
2017-Nov-16 20:30N 38°33' W 009°48'5 9.6
2017-Nov-16 20:00N 38°28' W 009°47'5 9.7
2017-Nov-16 19:30N 38°24' W 009°46'5 9.8
2017-Nov-16 19:00N 38°19' W 009°44'5 9.6
2017-Nov-16 18:31N 38°14' W 009°43'510.0
2017-Nov-16 18:01N 38°09' W 009°42'510.3
2017-Nov-16 17:30N 38°04' W 009°40'510.4
2017-Nov-16 17:00N 37°59' W 009°39'510.6
2017-Nov-16 16:30N 37°54' W 009°37'510.4
2017-Nov-16 16:00N 37°49' W 009°36'510.3
2017-Nov-16 15:30N 37°44' W 009°34'510.7
2017-Nov-16 15:00N 37°39' W 009°33'510.9
2017-Nov-16 14:30N 37°34' W 009°31'510.5
2017-Nov-16 14:00N 37°28' W 009°30'1110.6
2017-Nov-16 12:56N 37°17' W 009°26'511.1
2017-Nov-16 12:30N 37°13' W 009°25'510.8
2017-Nov-16 12:00N 37°08' W 009°23'510.7
2017-Nov-16 11:30N 37°02' W 009°22'510.9
2017-Nov-16 11:00N 36°57' W 009°20'510.4
2017-Nov-16 10:30N 36°52' W 009°18'611.2
2017-Nov-16 09:59N 36°48' W 009°13'611.3
2017-Nov-16 09:28N 36°44' W 009°08'611.5
2017-Nov-16 08:57N 36°42' W 009°01'17111.5
2017-Nov-15 18:04N 35°58' W 005°36'1 9.2
2017-Nov-15 17:57N 35°58' W 005°35'4 9.1
2017-Nov-15 17:30N 35°59' W 005°30'5 9.0
2017-Nov-15 16:59N 36°00' W 005°24'510.3
2017-Nov-15 16:30N 36°02' W 005°18'  
2017-Nov-11 22:43N 36°35' E 014°01'311.9
2017-Nov-11 22:28N 36°34' E 014°05'612.1
2017-Nov-11 22:00N 36°32' E 014°12'612.0
2017-Nov-11 21:27N 36°30' E 014°19'612.2
2017-Nov-11 21:00N 36°28' E 014°26'612.1
2017-Nov-11 20:30N 36°27' E 014°33'612.1
2017-Nov-11 20:00N 36°26' E 014°40'46711.3
2017-Nov-10 02:35N 37°44' E 024°18'  
Track history (hours):
 
Tides and Currents Weather Stations Pressure Air Temp Water Temp Dewpoint Dewpoint Depression Visibility Wind Speed Wind Dir Waves Ship Positions

Praetorius

Last reported at 2017-Nov-18 17:06 UTC. Time now 2017-Nov-21 12:17 UTC.
Position N 40°39' W 008°43'.

Length 169 m; draft 9.9 m.

Type: Ship. MMSI: 212942000.

Date/timePositionNaut miles runAvg speedWind from/ knotsBaromVisibWave heightAir tempDewpointWater temp
2017-Nov-18 17:06N 40°39' W 008°43'0 0.0
2017-Nov-18 16:57N 40°39' W 008°43'0 0.0
2017-Nov-18 16:30N 40°39' W 008°43'73 1.9
2017-Nov-17 03:10N 39°41' W 009°39'11 9.8
2017-Nov-17 02:06N 39°30' W 009°42'510.6
2017-Nov-17 01:40N 39°26' W 009°43'210.5
2017-Nov-17 01:31N 39°24' W 009°43'510.9
2017-Nov-17 01:00N 39°19' W 009°44'510.8
2017-Nov-17 00:30N 39°13' W 009°45'510.6
2017-Nov-17 00:01N 39°08' W 009°46'510.5
2017-Nov-16 23:30N 39°03' W 009°47'510.5
2017-Nov-16 23:00N 38°58' W 009°48'510.4
2017-Nov-16 22:31N 38°53' W 009°50'510.5
2017-Nov-16 22:01N 38°48' W 009°51'510.2
2017-Nov-16 21:31N 38°42' W 009°51'5 9.8
2017-Nov-16 21:00N 38°38' W 009°50'5 9.5
2017-Nov-16 20:30N 38°33' W 009°48'5 9.6
2017-Nov-16 20:00N 38°28' W 009°47'5 9.7
2017-Nov-16 19:30N 38°24' W 009°46'5 9.8
2017-Nov-16 19:00N 38°19' W 009°44'5 9.6
2017-Nov-16 18:31N 38°14' W 009°43'510.0
2017-Nov-16 18:01N 38°09' W 009°42'510.3
2017-Nov-16 17:30N 38°04' W 009°40'510.4
2017-Nov-16 17:00N 37°59' W 009°39'510.6
2017-Nov-16 16:30N 37°54' W 009°37'510.4
2017-Nov-16 16:00N 37°49' W 009°36'510.3
2017-Nov-16 15:30N 37°44' W 009°34'510.7
2017-Nov-16 15:00N 37°39' W 009°33'510.9
2017-Nov-16 14:30N 37°34' W 009°31'510.5
2017-Nov-16 14:00N 37°28' W 009°30'1110.6
2017-Nov-16 12:56N 37°17' W 009°26'511.1
2017-Nov-16 12:30N 37°13' W 009°25'510.8
2017-Nov-16 12:00N 37°08' W 009°23'510.7
2017-Nov-16 11:30N 37°02' W 009°22'510.9
2017-Nov-16 11:00N 36°57' W 009°20'510.4
2017-Nov-16 10:30N 36°52' W 009°18'611.2
2017-Nov-16 09:59N 36°48' W 009°13'611.3
2017-Nov-16 09:28N 36°44' W 009°08'611.5
2017-Nov-16 08:57N 36°42' W 009°01'17111.5
2017-Nov-15 18:04N 35°58' W 005°36'1 9.2
2017-Nov-15 17:57N 35°58' W 005°35'4 9.1
2017-Nov-15 17:30N 35°59' W 005°30'5 9.0
2017-Nov-15 16:59N 36°00' W 005°24'510.3
2017-Nov-15 16:30N 36°02' W 005°18'  
2017-Nov-11 22:43N 36°35' E 014°01'311.9
2017-Nov-11 22:28N 36°34' E 014°05'612.1
2017-Nov-11 22:00N 36°32' E 014°12'612.0
2017-Nov-11 21:27N 36°30' E 014°19'612.2
2017-Nov-11 21:00N 36°28' E 014°26'612.1
2017-Nov-11 20:30N 36°27' E 014°33'612.1
2017-Nov-11 20:00N 36°26' E 014°40'46711.3
2017-Nov-10 02:35N 37°44' E 024°18'  

Dump ship's entire track history